Terminal Aerodrome Forecast
Issued by NWS Sterling, VA

Home | Current Version | Previous Version | Text Only | Print | Product List | Glossary On
Versions: 1 2 3 4 5 6 7 8 9 10 11 12 13 14 15 16 17 18 19 20 21 22 23 24 25
432
FTUS41 KLWX 292320
TAFBWI
TAF
KBWI 292320Z 3000/3106 17006KT P6SM SCT045 SCT120
     FM300800 00000KT P6SM BKN060
     FM301500 13005KT P6SM SHRA BKN040
     FM301800 14006KT P6SM SHRA VCTS BKN040CB
     FM302100 13007KT P6SM SHRA VCTS OVC030CB=

USA.gov is the U.S. government's official web portal to all federal, state and local government web resources and services.